sensor_id;sensor_type;location;lat;lon;timestamp;pressure;altitude;pressure_sealevel;temperature;humidity
65872;BME280;52653;50.080;21.992;2022-08-03T00:00:13;99417.87;;;17.86;83.67
65872;BME280;52653;50.080;21.992;2022-08-03T00:03:07;99418.67;;;17.88;83.34
65872;BME280;52653;50.080;21.992;2022-08-03T00:06:01;99418.73;;;17.82;82.81
65872;BME280;52653;50.080;21.992;2022-08-03T00:08:56;99416.63;;;17.71;83.11
65872;BME280;52653;50.080;21.992;2022-08-03T00:11:48;99414.64;;;17.65;83.16
65872;BME280;52653;50.080;21.992;2022-08-03T00:14:41;99413.79;;;17.59;83.50
65872;BME280;52653;50.080;21.992;2022-08-03T00:17:34;99410.82;;;17.52;83.65
65872;BME280;52653;50.080;21.992;2022-08-03T00:20:43;99415.72;;;17.48;83.54
65872;BME280;52653;50.080;21.992;2022-08-03T00:23:36;99417.23;;;17.45;83.60
65872;BME280;52653;50.080;21.992;2022-08-03T00:26:42;99419.21;;;17.45;83.72
65872;BME280;52653;50.080;21.992;2022-08-03T00:29:37;99421.85;;;17.45;83.78
65872;BME280;52653;50.080;21.992;2022-08-03T00:32:52;99420.01;;;17.47;83.83
65872;BME280;52653;50.080;21.992;2022-08-03T00:35:44;99418.88;;;17.49;84.12
65872;BME280;52653;50.080;21.992;2022-08-03T00:38:40;99418.73;;;17.54;84.08
65872;BME280;52653;50.080;21.992;2022-08-03T00:41:32;99418.91;;;17.59;84.25
65872;BME280;52653;50.080;21.992;2022-08-03T00:44:25;99418.36;;;17.66;84.17
65872;BME280;52653;50.080;21.992;2022-08-03T00:47:17;99418.65;;;17.74;84.33
65872;BME280;52653;50.080;21.992;2022-08-03T00:50:10;99420.30;;;17.83;84.73
65872;BME280;52653;50.080;21.992;2022-08-03T00:53:05;99421.33;;;17.88;84.63
65872;BME280;52653;50.080;21.992;2022-08-03T00:55:57;99422.30;;;17.86;84.36
65872;BME280;52653;50.080;21.992;2022-08-03T00:58:53;99425.76;;;17.79;84.40
65872;BME280;52653;50.080;21.992;2022-08-03T01:01:47;99429.21;;;17.76;84.86
65872;BME280;52653;50.080;21.992;2022-08-03T01:04:40;99429.41;;;17.81;85.41
65872;BME280;52653;50.080;21.992;2022-08-03T01:07:41;99429.27;;;17.85;85.12
65872;BME280;52653;50.080;21.992;2022-08-03T01:10:44;99428.85;;;17.82;84.92
65872;BME280;52653;50.080;21.992;2022-08-03T01:13:43;99429.81;;;17.74;84.94
65872;BME280;52653;50.080;21.992;2022-08-03T01:16:59;99427.71;;;17.68;85.35
65872;BME280;52653;50.080;21.992;2022-08-03T01:19:51;99432.76;;;17.64;85.90
65872;BME280;52653;50.080;21.992;2022-08-03T01:23:07;99430.36;;;17.68;86.14
65872;BME280;52653;50.080;21.992;2022-08-03T01:26:02;99435.46;;;17.75;86.37
65872;BME280;52653;50.080;21.992;2022-08-03T01:29:06;99434.58;;;17.85;86.74
65872;BME280;52653;50.080;21.992;2022-08-03T01:32:04;99434.17;;;17.98;86.77
65872;BME280;52653;50.080;21.992;2022-08-03T01:35:24;99433.67;;;18.01;86.43
65872;BME280;52653;50.080;21.992;2022-08-03T01:38:22;99436.80;;;18.09;86.51
65872;BME280;52653;50.080;21.992;2022-08-03T01:41:19;99434.85;;;18.19;86.43
65872;BME280;52653;50.080;21.992;2022-08-03T01:44:04;99433.23;;;18.25;86.11
65872;BME280;52653;50.080;21.992;2022-08-03T01:47:20;99438.36;;;18.25;85.89
65872;BME280;52653;50.080;21.992;2022-08-03T01:50:14;99437.08;;;18.26;85.84
65872;BME280;52653;50.080;21.992;2022-08-03T01:53:09;99437.56;;;18.33;85.93
65872;BME280;52653;50.080;21.992;2022-08-03T01:56:06;99436.35;;;18.37;85.61
65872;BME280;52653;50.080;21.992;2022-08-03T01:59:01;99431.23;;;18.41;85.65
65872;BME280;52653;50.080;21.992;2022-08-03T02:01:54;99430.95;;;18.44;85.49
65872;BME280;52653;50.080;21.992;2022-08-03T02:05:09;99431.64;;;18.39;84.91
65872;BME280;52653;50.080;21.992;2022-08-03T02:08:06;99433.92;;;18.30;84.69
65872;BME280;52653;50.080;21.992;2022-08-03T02:10:59;99432.89;;;18.19;84.83
65872;BME280;52653;50.080;21.992;2022-08-03T02:13:53;99431.02;;;18.16;85.41
65872;BME280;52653;50.080;21.992;2022-08-03T02:16:40;99427.25;;;18.18;85.82
65872;BME280;52653;50.080;21.992;2022-08-03T02:19:35;99429.02;;;18.23;85.41
65872;BME280;52653;50.080;21.992;2022-08-03T02:22:21;99431.23;;;18.26;85.60
65872;BME280;52653;50.080;21.992;2022-08-03T02:25:17;99432.20;;;18.34;85.67
65872;BME280;52653;50.080;21.992;2022-08-03T02:28:15;99435.02;;;18.39;85.32
65872;BME280;52653;50.080;21.992;2022-08-03T02:31:14;99432.95;;;18.37;85.01
65872;BME280;52653;50.080;21.992;2022-08-03T02:34:13;99434.48;;;18.29;85.21
65872;BME280;52653;50.080;21.992;2022-08-03T02:37:08;99434.02;;;18.27;85.32
65872;BME280;52653;50.080;21.992;2022-08-03T02:40:06;99430.80;;;18.28;85.54
65872;BME280;52653;50.080;21.992;2022-08-03T02:43:02;99431.13;;;18.28;85.42
65872;BME280;52653;50.080;21.992;2022-08-03T02:45:56;99428.45;;;18.29;85.27
65872;BME280;52653;50.080;21.992;2022-08-03T02:48:49;99426.27;;;18.31;85.44
65872;BME280;52653;50.080;21.992;2022-08-03T02:51:44;99428.95;;;18.35;85.54
65872;BME280;52653;50.080;21.992;2022-08-03T02:54:38;99429.61;;;18.41;85.55
65872;BME280;52653;50.080;21.992;2022-08-03T02:57:32;99433.65;;;18.38;85.14
65872;BME280;52653;50.080;21.992;2022-08-03T03:00:18;99434.36;;;18.38;85.43
65872;BME280;52653;50.080;21.992;2022-08-03T03:03:18;99435.01;;;18.44;85.36
65872;BME280;52653;50.080;21.992;2022-08-03T03:06:12;99434.55;;;18.47;85.09
65872;BME280;52653;50.080;21.992;2022-08-03T03:09:05;99441.36;;;18.45;84.70
65872;BME280;52653;50.080;21.992;2022-08-03T03:11:57;99440.59;;;18.47;85.03
65872;BME280;52653;50.080;21.992;2022-08-03T03:14:50;99439.84;;;18.53;85.06
65872;BME280;52653;50.080;21.992;2022-08-03T03:17:43;99442.65;;;18.59;85.12
65872;BME280;52653;50.080;21.992;2022-08-03T03:20:39;99445.23;;;18.66;85.34
65872;BME280;52653;50.080;21.992;2022-08-03T03:23:32;99445.54;;;18.68;85.09
65872;BME280;52653;50.080;21.992;2022-08-03T03:26:26;99442.02;;;18.62;84.68
65872;BME280;52653;50.080;21.992;2022-08-03T03:29:19;99440.92;;;18.58;84.97
65872;BME280;52653;50.080;21.992;2022-08-03T03:31:51;99443.29;;;18.61;84.98
65872;BME280;52653;50.080;21.992;2022-08-03T03:34:44;99445.58;;;18.67;85.07
65872;BME280;52653;50.080;21.992;2022-08-03T03:37:37;99446.27;;;18.72;84.75
65872;BME280;52653;50.080;21.992;2022-08-03T03:40:29;99449.89;;;18.75;84.70
65872;BME280;52653;50.080;21.992;2022-08-03T03:43:23;99450.89;;;18.77;84.64
65872;BME280;52653;50.080;21.992;2022-08-03T03:46:15;99453.09;;;18.80;84.36
65872;BME280;52653;50.080;21.992;2022-08-03T03:49:08;99454.12;;;18.86;84.31
65872;BME280;52653;50.080;21.992;2022-08-03T03:52:01;99459.67;;;18.94;84.66
65872;BME280;52653;50.080;21.992;2022-08-03T03:54:54;99462.70;;;19.03;84.35
65872;BME280;52653;50.080;21.992;2022-08-03T03:57:51;99461.38;;;19.10;84.07
65872;BME280;52653;50.080;21.992;2022-08-03T04:00:43;99463.32;;;19.15;83.87
65872;BME280;52653;50.080;21.992;2022-08-03T04:03:37;99463.48;;;19.15;83.87
65872;BME280;52653;50.080;21.992;2022-08-03T04:06:29;99468.07;;;19.12;83.61
65872;BME280;52653;50.080;21.992;2022-08-03T04:09:54;99468.78;;;19.12;83.73
65872;BME280;52653;50.080;21.992;2022-08-03T04:13:08;99471.94;;;19.18;84.03
65872;BME280;52653;50.080;21.992;2022-08-03T04:16:01;99477.12;;;19.26;84.04
65872;BME280;52653;50.080;21.992;2022-08-03T04:18:59;99478.52;;;19.31;83.77
65872;BME280;52653;50.080;21.992;2022-08-03T04:21:56;99482.98;;;19.35;83.44
65872;BME280;52653;50.080;21.992;2022-08-03T04:24:52;99487.05;;;19.36;83.02
65872;BME280;52653;50.080;21.992;2022-08-03T04:27:48;99487.10;;;19.39;83.23
65872;BME280;52653;50.080;21.992;2022-08-03T04:31:07;99490.64;;;19.39;82.55
65872;BME280;52653;50.080;21.992;2022-08-03T04:33:59;99492.67;;;19.24;82.49
65872;BME280;52653;50.080;21.992;2022-08-03T04:36:58;99493.36;;;19.15;82.84
65872;BME280;52653;50.080;21.992;2022-08-03T04:39:47;99496.82;;;19.13;82.85
65872;BME280;52653;50.080;21.992;2022-08-03T04:42:42;99494.67;;;19.09;82.94
65872;BME280;52653;50.080;21.992;2022-08-03T04:45:36;99495.56;;;19.04;83.20
65872;BME280;52653;50.080;21.992;2022-08-03T04:48:29;99496.79;;;19.04;83.84
65872;BME280;52653;50.080;21.992;2022-08-03T04:51:22;99500.50;;;19.10;83.70
65872;BME280;52653;50.080;21.992;2022-08-03T04:54:12;99498.70;;;19.15;83.48
65872;BME280;52653;50.080;21.992;2022-08-03T04:57:05;99499.80;;;19.19;83.77
65872;BME280;52653;50.080;21.992;2022-08-03T04:59:59;99500.34;;;19.28;83.84
65872;BME280;52653;50.080;21.992;2022-08-03T05:02:54;99500.23;;;19.35;83.39
65872;BME280;52653;50.080;21.992;2022-08-03T05:05:46;99499.20;;;19.44;83.47
65872;BME280;52653;50.080;21.992;2022-08-03T05:08:40;99497.91;;;19.54;83.32
65872;BME280;52653;50.080;21.992;2022-08-03T05:11:39;99493.59;;;19.60;83.14
65872;BME280;52653;50.080;21.992;2022-08-03T05:14:31;99496.86;;;19.63;82.83
65872;BME280;52653;50.080;21.992;2022-08-03T05:17:24;99496.66;;;19.68;82.99
65872;BME280;52653;50.080;21.992;2022-08-03T05:20:16;99501.56;;;19.74;82.94
65872;BME280;52653;50.080;21.992;2022-08-03T05:23:09;99505.92;;;19.77;82.60
65872;BME280;52653;50.080;21.992;2022-08-03T05:26:01;99507.80;;;19.70;81.99
65872;BME280;52653;50.080;21.992;2022-08-03T05:28:53;99507.92;;;19.66;82.54
65872;BME280;52653;50.080;21.992;2022-08-03T05:31:45;99505.77;;;19.67;82.52
65872;BME280;52653;50.080;21.992;2022-08-03T05:34:38;99509.69;;;19.67;82.62
65872;BME280;52653;50.080;21.992;2022-08-03T05:37:30;99516.14;;;19.75;82.67
65872;BME280;52653;50.080;21.992;2022-08-03T05:40:22;99518.64;;;19.79;82.34
65872;BME280;52653;50.080;21.992;2022-08-03T05:43:16;99518.48;;;19.74;82.26
65872;BME280;52653;50.080;21.992;2022-08-03T05:46:09;99518.89;;;19.68;82.39
65872;BME280;52653;50.080;21.992;2022-08-03T05:48:52;99526.80;;;19.66;82.60
65872;BME280;52653;50.080;21.992;2022-08-03T05:51:44;99526.95;;;19.66;82.81
65872;BME280;52653;50.080;21.992;2022-08-03T05:54:49;99530.41;;;19.69;82.62
65872;BME280;52653;50.080;21.992;2022-08-03T05:57:47;99529.29;;;19.71;82.48
65872;BME280;52653;50.080;21.992;2022-08-03T06:00:39;99531.38;;;19.73;82.54
65872;BME280;52653;50.080;21.992;2022-08-03T06:03:31;99534.42;;;19.76;82.19
65872;BME280;52653;50.080;21.992;2022-08-03T06:06:23;99532.95;;;19.86;82.59
65872;BME280;52653;50.080;21.992;2022-08-03T06:09:21;99530.91;;;20.05;82.29
65872;BME280;52653;50.080;21.992;2022-08-03T06:12:33;99527.95;;;20.25;82.32
65872;BME280;52653;50.080;21.992;2022-08-03T06:15:26;99532.06;;;20.42;81.69
65872;BME280;52653;50.080;21.992;2022-08-03T06:18:18;99535.81;;;20.59;81.34
65872;BME280;52653;50.080;21.992;2022-08-03T06:21:10;99535.20;;;20.73;80.45
65872;BME280;52653;50.080;21.992;2022-08-03T06:23:58;99534.59;;;20.82;79.97
65872;BME280;52653;50.080;21.992;2022-08-03T06:26:52;99536.59;;;20.94;79.30
65872;BME280;52653;50.080;21.992;2022-08-03T06:29:44;99536.04;;;21.14;79.16
65872;BME280;52653;50.080;21.992;2022-08-03T06:32:37;99534.60;;;21.45;79.15
65872;BME280;52653;50.080;21.992;2022-08-03T06:35:29;99534.46;;;21.79;78.25
65872;BME280;52653;50.080;21.992;2022-08-03T06:38:24;99538.48;;;22.02;77.35
65872;BME280;52653;50.080;21.992;2022-08-03T06:41:18;99538.00;;;22.23;76.74
65872;BME280;52653;50.080;21.992;2022-08-03T06:44:03;99537.54;;;22.46;76.36
65872;BME280;52653;50.080;21.992;2022-08-03T06:46:55;99541.56;;;22.69;75.42
65872;BME280;52653;50.080;21.992;2022-08-03T06:49:48;99544.39;;;22.80;74.17
65872;BME280;52653;50.080;21.992;2022-08-03T06:53:01;99540.67;;;22.86;73.51
65872;BME280;52653;50.080;21.992;2022-08-03T06:55:54;99544.34;;;23.08;74.22
65872;BME280;52653;50.080;21.992;2022-08-03T06:58:46;99545.44;;;23.31;73.03
65872;BME280;52653;50.080;21.992;2022-08-03T07:01:39;99548.60;;;23.45;71.99
65872;BME280;52653;50.080;21.992;2022-08-03T07:04:32;99548.23;;;23.52;70.47
65872;BME280;52653;50.080;21.992;2022-08-03T07:07:17;99550.44;;;23.47;69.97
65872;BME280;52653;50.080;21.992;2022-08-03T07:10:11;99552.27;;;23.53;70.51
65872;BME280;52653;50.080;21.992;2022-08-03T07:12:57;99553.60;;;23.62;70.38
65872;BME280;52653;50.080;21.992;2022-08-03T07:15:49;99553.86;;;23.76;70.41
65872;BME280;52653;50.080;21.992;2022-08-03T07:18:46;99553.73;;;23.97;70.31
65872;BME280;52653;50.080;21.992;2022-08-03T07:21:39;99550.39;;;24.27;69.60
65872;BME280;52653;50.080;21.992;2022-08-03T07:24:31;99548.41;;;24.61;68.61
65872;BME280;52653;50.080;21.992;2022-08-03T07:27:27;99549.96;;;24.92;67.78
65872;BME280;52653;50.080;21.992;2022-08-03T07:30:20;99550.83;;;25.08;66.65
65872;BME280;52653;50.080;21.992;2022-08-03T07:33:13;99549.39;;;25.30;66.44
65872;BME280;52653;50.080;21.992;2022-08-03T07:35:58;99548.91;;;25.58;66.07
65872;BME280;52653;50.080;21.992;2022-08-03T07:38:50;99549.53;;;25.88;65.20
65872;BME280;52653;50.080;21.992;2022-08-03T07:41:41;99548.89;;;26.08;64.33
65872;BME280;52653;50.080;21.992;2022-08-03T07:44:33;99554.20;;;26.18;62.91
65872;BME280;52653;50.080;21.992;2022-08-03T07:47:27;99554.75;;;26.09;62.00
65872;BME280;52653;50.080;21.992;2022-08-03T07:50:25;99556.08;;;26.16;63.00
65872;BME280;52653;50.080;21.992;2022-08-03T07:53:18;99548.23;;;26.32;62.65
65872;BME280;52653;50.080;21.992;2022-08-03T07:56:11;99549.52;;;26.28;61.94
65872;BME280;52653;50.080;21.992;2022-08-03T07:59:03;99553.32;;;26.33;61.58
65872;BME280;52653;50.080;21.992;2022-08-03T08:01:55;99555.98;;;26.26;61.46
65872;BME280;52653;50.080;21.992;2022-08-03T08:04:48;99555.55;;;26.32;61.25
65872;BME280;52653;50.080;21.992;2022-08-03T08:07:40;99556.34;;;26.50;61.19
65872;BME280;52653;50.080;21.992;2022-08-03T08:10:33;99553.98;;;26.69;61.58
65872;BME280;52653;50.080;21.992;2022-08-03T08:13:19;99550.73;;;26.80;60.26
65872;BME280;52653;50.080;21.992;2022-08-03T08:15:51;99552.23;;;26.87;60.47
65872;BME280;52653;50.080;21.992;2022-08-03T08:18:24;99552.77;;;26.94;59.64
65872;BME280;52653;50.080;21.992;2022-08-03T08:21:16;99549.65;;;27.06;58.39
65872;BME280;52653;50.080;21.992;2022-08-03T08:24:10;99550.33;;;27.14;58.13
65872;BME280;52653;50.080;21.992;2022-08-03T08:27:10;99554.05;;;27.12;56.63
65872;BME280;52653;50.080;21.992;2022-08-03T08:30:04;99557.56;;;27.09;56.60
65872;BME280;52653;50.080;21.992;2022-08-03T08:33:02;99564.20;;;27.24;54.24
65872;BME280;52653;50.080;21.992;2022-08-03T08:35:54;99564.23;;;27.34;53.72
65872;BME280;52653;50.080;21.992;2022-08-03T08:38:47;99565.77;;;27.60;53.93
65872;BME280;52653;50.080;21.992;2022-08-03T08:41:39;99558.59;;;27.92;53.11
65872;BME280;52653;50.080;21.992;2022-08-03T08:44:36;99555.81;;;28.17;51.17
65872;BME280;52653;50.080;21.992;2022-08-03T08:47:30;99555.61;;;28.37;50.40
65872;BME280;52653;50.080;21.992;2022-08-03T08:50:26;99556.11;;;28.61;48.63
65872;BME280;52653;50.080;21.992;2022-08-03T08:53:12;99555.39;;;28.73;46.98
65872;BME280;52653;50.080;21.992;2022-08-03T08:56:04;99554.61;;;28.79;46.17
65872;BME280;52653;50.080;21.992;2022-08-03T08:59:01;99552.97;;;28.93;47.45
65872;BME280;52653;50.080;21.992;2022-08-03T09:01:57;99548.72;;;29.06;47.07
65872;BME280;52653;50.080;21.992;2022-08-03T09:04:49;99546.82;;;29.16;46.06
65872;BME280;52653;50.080;21.992;2022-08-03T09:07:43;99544.27;;;29.14;45.28
65872;BME280;52653;50.080;21.992;2022-08-03T09:10:35;99550.27;;;29.14;46.43
65872;BME280;52653;50.080;21.992;2022-08-03T09:13:28;99544.66;;;29.23;46.52
65872;BME280;52653;50.080;21.992;2022-08-03T09:16:22;99544.44;;;29.30;46.64
65872;BME280;52653;50.080;21.992;2022-08-03T09:19:14;99544.41;;;29.30;46.84
65872;BME280;52653;50.080;21.992;2022-08-03T09:22:07;99542.73;;;29.31;45.91
65872;BME280;52653;50.080;21.992;2022-08-03T09:25:03;99541.20;;;29.32;45.18
65872;BME280;52653;50.080;21.992;2022-08-03T09:28:16;99542.40;;;29.24;43.89
65872;BME280;52653;50.080;21.992;2022-08-03T09:31:33;99539.23;;;29.23;44.38
65872;BME280;52653;50.080;21.992;2022-08-03T09:34:26;99538.48;;;29.41;44.31
65872;BME280;52653;50.080;21.992;2022-08-03T09:37:20;99536.25;;;29.51;41.84
65872;BME280;52653;50.080;21.992;2022-08-03T09:40:37;99530.13;;;29.62;38.38
65872;BME280;52653;50.080;21.992;2022-08-03T09:43:45;99531.46;;;29.64;38.17
65872;BME280;52653;50.080;21.992;2022-08-03T09:46:50;99531.16;;;29.71;38.75
65872;BME280;52653;50.080;21.992;2022-08-03T09:49:42;99529.60;;;29.84;37.60
65872;BME280;52653;50.080;21.992;2022-08-03T09:52:47;99528.73;;;29.83;35.67
65872;BME280;52653;50.080;21.992;2022-08-03T09:55:50;99525.42;;;29.77;36.18
65872;BME280;52653;50.080;21.992;2022-08-03T09:59:03;99525.11;;;29.71;39.00
65872;BME280;52653;50.080;21.992;2022-08-03T10:01:56;99526.39;;;29.57;39.62
65872;BME280;52653;50.080;21.992;2022-08-03T10:04:50;99527.33;;;29.38;39.31
65872;BME280;52653;50.080;21.992;2022-08-03T10:07:44;99521.55;;;29.25;39.30
65872;BME280;52653;50.080;21.992;2022-08-03T10:10:42;99520.71;;;29.26;38.82
65872;BME280;52653;50.080;21.992;2022-08-03T10:13:36;99524.06;;;29.32;38.49
65872;BME280;52653;50.080;21.992;2022-08-03T10:16:34;99520.26;;;29.46;37.20
65872;BME280;52653;50.080;21.992;2022-08-03T10:19:26;99520.40;;;29.68;36.24
65872;BME280;52653;50.080;21.992;2022-08-03T10:22:20;99520.41;;;29.92;36.36
65872;BME280;52653;50.080;21.992;2022-08-03T10:25:14;99517.27;;;30.15;37.34
65872;BME280;52653;50.080;21.992;2022-08-03T10:28:08;99519.44;;;30.36;36.62
65872;BME280;52653;50.080;21.992;2022-08-03T10:31:05;99522.46;;;30.52;35.47
65872;BME280;52653;50.080;21.992;2022-08-03T10:33:59;99519.39;;;30.63;36.06
65872;BME280;52653;50.080;21.992;2022-08-03T10:36:57;99520.80;;;30.63;35.23
65872;BME280;52653;50.080;21.992;2022-08-03T10:39:51;99520.09;;;30.63;36.47
65872;BME280;52653;50.080;21.992;2022-08-03T10:42:47;99518.36;;;30.62;36.52
65872;BME280;52653;50.080;21.992;2022-08-03T10:45:31;99517.48;;;30.47;36.87
65872;BME280;52653;50.080;21.992;2022-08-03T10:48:15;99519.64;;;30.36;38.13
65872;BME280;52653;50.080;21.992;2022-08-03T10:51:09;99519.41;;;30.30;37.62
65872;BME280;52653;50.080;21.992;2022-08-03T10:54:02;99519.95;;;30.20;37.36
65872;BME280;52653;50.080;21.992;2022-08-03T10:56:54;99514.44;;;30.14;38.52
65872;BME280;52653;50.080;21.992;2022-08-03T11:00:01;99517.62;;;30.04;38.89
65872;BME280;52653;50.080;21.992;2022-08-03T11:03:06;99514.13;;;29.89;39.39
65872;BME280;52653;50.080;21.992;2022-08-03T11:06:16;99507.98;;;29.78;40.01
65872;BME280;52653;50.080;21.992;2022-08-03T11:09:19;99509.84;;;29.82;40.42
65872;BME280;52653;50.080;21.992;2022-08-03T11:12:23;99507.65;;;29.96;40.16
65872;BME280;52653;50.080;21.992;2022-08-03T11:15:32;99507.64;;;30.30;39.22
65872;BME280;52653;50.080;21.992;2022-08-03T11:18:26;99505.09;;;30.60;37.94
65872;BME280;52653;50.080;21.992;2022-08-03T11:21:18;99502.98;;;30.97;38.02
65872;BME280;52653;50.080;21.992;2022-08-03T11:24:10;99502.95;;;31.27;36.72
65872;BME280;52653;50.080;21.992;2022-08-03T11:27:24;99495.52;;;31.53;36.64
65872;BME280;52653;50.080;21.992;2022-08-03T11:30:23;99494.82;;;31.75;37.08
65872;BME280;52653;50.080;21.992;2022-08-03T11:33:29;99490.89;;;32.08;36.70
65872;BME280;52653;50.080;21.992;2022-08-03T11:36:11;99489.07;;;32.19;35.24
65872;BME280;52653;50.080;21.992;2022-08-03T11:39:22;99486.83;;;32.22;35.28
65872;BME280;52653;50.080;21.992;2022-08-03T11:42:43;99482.40;;;32.25;34.53
65872;BME280;52653;50.080;21.992;2022-08-03T11:45:37;99485.21;;;32.12;34.51
65872;BME280;52653;50.080;21.992;2022-08-03T11:48:15;99482.71;;;31.98;35.13
65872;BME280;52653;50.080;21.992;2022-08-03T11:51:22;99483.27;;;31.86;35.75
65872;BME280;52653;50.080;21.992;2022-08-03T11:54:19;99483.90;;;31.71;35.26
65872;BME280;52653;50.080;21.992;2022-08-03T11:57:13;99484.41;;;31.54;34.48
65872;BME280;52653;50.080;21.992;2022-08-03T12:00:39;99478.66;;;31.39;35.13
65872;BME280;52653;50.080;21.992;2022-08-03T12:03:33;99477.32;;;31.49;35.95
65872;BME280;52653;50.080;21.992;2022-08-03T12:06:26;99473.91;;;31.67;34.97
65872;BME280;52653;50.080;21.992;2022-08-03T12:09:18;99473.69;;;31.80;34.69
65872;BME280;52653;50.080;21.992;2022-08-03T12:12:04;99469.73;;;31.93;34.80
65872;BME280;52653;50.080;21.992;2022-08-03T12:14:56;99472.15;;;32.24;34.58
65872;BME280;52653;50.080;21.992;2022-08-03T12:17:49;99465.16;;;32.37;34.35
65872;BME280;52653;50.080;21.992;2022-08-03T12:20:48;99465.27;;;32.49;34.06
65872;BME280;52653;50.080;21.992;2022-08-03T12:23:31;99459.08;;;32.36;33.80
65872;BME280;52653;50.080;21.992;2022-08-03T12:26:28;99463.06;;;32.10;35.39
65872;BME280;52653;50.080;21.992;2022-08-03T12:29:22;99461.29;;;31.87;36.00
65872;BME280;52653;50.080;21.992;2022-08-03T12:32:16;99464.86;;;31.47;34.74
65872;BME280;52653;50.080;21.992;2022-08-03T12:35:09;99461.33;;;31.20;35.60
65872;BME280;52653;50.080;21.992;2022-08-03T12:38:02;99460.52;;;30.94;35.17
65872;BME280;52653;50.080;21.992;2022-08-03T12:41:06;99461.70;;;30.74;36.04
65872;BME280;52653;50.080;21.992;2022-08-03T12:44:05;99460.05;;;30.56;36.85
65872;BME280;52653;50.080;21.992;2022-08-03T12:46:58;99458.09;;;30.38;37.33
65872;BME280;52653;50.080;21.992;2022-08-03T12:49:51;99458.63;;;30.32;38.01
65872;BME280;52653;50.080;21.992;2022-08-03T12:52:42;99458.11;;;30.23;37.95
65872;BME280;52653;50.080;21.992;2022-08-03T12:55:35;99458.31;;;30.21;38.78
65872;BME280;52653;50.080;21.992;2022-08-03T12:58:48;99454.48;;;30.34;38.44
65872;BME280;52653;50.080;21.992;2022-08-03T13:01:41;99449.65;;;30.33;37.68
65872;BME280;52653;50.080;21.992;2022-08-03T13:04:38;99448.61;;;30.24;38.02
65872;BME280;52653;50.080;21.992;2022-08-03T13:07:40;99448.90;;;30.26;38.62
65872;BME280;52653;50.080;21.992;2022-08-03T13:10:35;99446.05;;;30.20;38.42
65872;BME280;52653;50.080;21.992;2022-08-03T13:13:41;99441.95;;;30.18;37.59
65872;BME280;52653;50.080;21.992;2022-08-03T13:16:33;99436.27;;;30.31;37.49
65872;BME280;52653;50.080;21.992;2022-08-03T13:19:27;99433.38;;;30.39;36.52
65872;BME280;52653;50.080;21.992;2022-08-03T13:22:20;99426.62;;;30.53;36.50
65872;BME280;52653;50.080;21.992;2022-08-03T13:25:04;99425.48;;;30.70;37.38
65872;BME280;52653;50.080;21.992;2022-08-03T13:27:56;99424.13;;;30.77;36.26
65872;BME280;52653;50.080;21.992;2022-08-03T13:30:55;99421.94;;;30.80;35.60
65872;BME280;52653;50.080;21.992;2022-08-03T13:33:47;99419.59;;;30.92;36.61
65872;BME280;52653;50.080;21.992;2022-08-03T13:36:40;99415.61;;;30.98;36.12
65872;BME280;52653;50.080;21.992;2022-08-03T13:39:52;99416.43;;;31.13;36.39
65872;BME280;52653;50.080;21.992;2022-08-03T13:42:49;99410.23;;;31.23;35.74
65872;BME280;52653;50.080;21.992;2022-08-03T13:45:42;99410.66;;;31.25;34.75
65872;BME280;52653;50.080;21.992;2022-08-03T13:48:41;99406.45;;;31.35;35.04
65872;BME280;52653;50.080;21.992;2022-08-03T13:51:33;99410.13;;;31.45;35.45
65872;BME280;52653;50.080;21.992;2022-08-03T13:54:24;99409.59;;;31.51;35.60
65872;BME280;52653;50.080;21.992;2022-08-03T13:57:17;99412.73;;;31.34;34.34
65872;BME280;52653;50.080;21.992;2022-08-03T14:00:30;99409.88;;;30.81;34.05
65872;BME280;52653;50.080;21.992;2022-08-03T14:03:15;99413.23;;;30.19;35.45
65872;BME280;52653;50.080;21.992;2022-08-03T14:06:07;99414.46;;;29.83;35.88
65872;BME280;52653;50.080;21.992;2022-08-03T14:08:59;99413.59;;;29.61;37.13
65872;BME280;52653;50.080;21.992;2022-08-03T14:11:52;99411.88;;;29.53;37.46
65872;BME280;52653;50.080;21.992;2022-08-03T14:14:57;99412.33;;;29.50;39.02
65872;BME280;52653;50.080;21.992;2022-08-03T14:17:51;99410.77;;;29.40;39.79
65872;BME280;52653;50.080;21.992;2022-08-03T14:20:45;99412.02;;;29.34;39.97
65872;BME280;52653;50.080;21.992;2022-08-03T14:23:45;99410.59;;;29.27;40.93
65872;BME280;52653;50.080;21.992;2022-08-03T14:26:38;99407.46;;;29.17;42.48
65872;BME280;52653;50.080;21.992;2022-08-03T14:29:30;99402.49;;;29.13;42.47
65872;BME280;52653;50.080;21.992;2022-08-03T14:32:11;99401.20;;;29.20;41.85
65872;BME280;52653;50.080;21.992;2022-08-03T14:35:04;99399.48;;;29.30;42.09
65872;BME280;52653;50.080;21.992;2022-08-03T14:37:56;99399.52;;;29.41;42.09
65872;BME280;52653;50.080;21.992;2022-08-03T14:40:49;99391.70;;;29.51;39.70
65872;BME280;52653;50.080;21.992;2022-08-03T14:43:41;99391.91;;;29.48;38.38
65872;BME280;52653;50.080;21.992;2022-08-03T14:46:52;99389.71;;;29.48;38.74
65872;BME280;52653;50.080;21.992;2022-08-03T14:49:44;99386.41;;;29.44;40.90
65872;BME280;52653;50.080;21.992;2022-08-03T14:52:56;99388.46;;;29.46;42.16
65872;BME280;52653;50.080;21.992;2022-08-03T14:55:48;99387.25;;;29.52;41.06
65872;BME280;52653;50.080;21.992;2022-08-03T14:58:41;99389.05;;;29.52;40.74
65872;BME280;52653;50.080;21.992;2022-08-03T15:01:33;99386.48;;;29.48;39.81
65872;BME280;52653;50.080;21.992;2022-08-03T15:04:45;99388.64;;;29.54;39.52
65872;BME280;52653;50.080;21.992;2022-08-03T15:07:38;99383.96;;;29.65;38.67
65872;BME280;52653;50.080;21.992;2022-08-03T15:10:12;99381.30;;;29.69;37.56
65872;BME280;52653;50.080;21.992;2022-08-03T15:13:04;99376.54;;;29.78;37.88
65872;BME280;52653;50.080;21.992;2022-08-03T15:15:57;99368.86;;;30.03;38.31